Погода Пацына 2 недели

Брестская область, Белоруссия

19 - 31 июля
  • 19июля
    Сегодня
    +14°
    +26°
    Ясно и безоблачно
    ВремяПогодаТемператураВлажностьДавлениеВетер, м/сВероятность осадков
    00:00Облачно с прояснениями+19°C66 %753 мм2.4 м/с2 %
    03:00Ясно и безоблачно+18°C73 %753 мм3.0 м/с2 %
    06:00Небольшая облачность+16°C83 %753 мм2.3 м/с2 %
    09:00Ясно и безоблачно+20°C73 %753 мм2.7 м/с2 %
    12:00Ясно и безоблачно+23°C56 %753 мм3.6 м/с2 %
    15:00Ясно и безоблачно+25°C42 %752 мм4.1 м/с2 %
    18:00Ясно и безоблачно+25°C45 %751 мм4.4 м/с2 %
    21:00Ясно и безоблачно+22°C61 %750 мм2.4 м/с2 %
  • 20июля
    Суббота
    +15°
    +26°
    Практически безоблачно
    ВремяПогодаТемператураВлажностьДавлениеВетер, м/сВероятность осадков
    00:00Ясно и безоблачно+18°C71 %750 мм2.5 м/с2 %
    03:00Ясно и безоблачно+16°C76 %750 мм2.8 м/с2 %
    06:00Ясно и безоблачно+15°C82 %749 мм2.0 м/с2 %
    09:00Ясно и безоблачно+19°C66 %749 мм2.1 м/с2 %
    12:00Небольшая облачность+22°C53 %749 мм2.4 м/с2 %
    15:00Практически безоблачно+24°C42 %748 мм2.3 м/с2 %
    18:00Ясно и безоблачно+25°C43 %747 мм2.2 м/с2 %
    21:00Ясно и безоблачно+22°C68 %747 мм1.7 м/с2 %
  • 21июля
    Воскресенье
    +16°
    +27°
    Ясно и безоблачно
    ВремяПогодаТемператураВлажностьДавлениеВетер, м/сВероятность осадков
    00:00Ясно и безоблачно+18°C74 %746 мм1.7 м/с2 %
    03:00Облачно с прояснениями+16°C78 %746 мм1.7 м/с2 %
    06:00Небольшая облачность+14°C86 %746 мм1.6 м/с2 %
    09:00Практически безоблачно+21°C62 %746 мм1.4 м/с2 %
    12:00Ясно и безоблачно+24°C46 %746 мм0.5 м/с2 %
    15:00Ясно и безоблачно+25°C41 %745 мм0.2 м/с7 %
    18:00Ясно и безоблачно+26°C40 %745 мм1.0 м/с7 %
    21:00Ясно и безоблачно+23°C57 %745 мм1.9 м/с2 %
  • 22июля
    Понедельник
    +16°
    +29°
    Практически безоблачно
    ВремяПогодаТемператураВлажностьДавлениеВетер, м/сВероятность осадков
    00:00Ясно и безоблачно+19°C66 %745 мм1.9 м/с2 %
    03:00Ясно и безоблачно+17°C75 %745 мм1.9 м/с2 %
    06:00Ясно и безоблачно+16°C81 %745 мм1.7 м/с2 %
    09:00Ясно и безоблачно+22°C64 %745 мм1.2 м/с2 %
    12:00Практически безоблачно+26°C43 %745 мм0.2 м/с2 %
    15:00Практически безоблачно+27°C42 %745 мм0.3 м/с10 %
    18:00Небольшая облачность+28°C41 %745 мм0.7 м/с7 %
    21:00Практически безоблачно+24°C70 %745 мм1.2 м/с12 %
Мы используем cookies
Соглашаюсь